메인 페이지
METAR-TAF:

METAR-TAF

공항 :

라르나카 국제공항

라르나카, 키프로스

위도: 34-53N, 경도: 033-38E, 고도: 2m

현재 날씨관측

예보는 10분 전, 09:00시(UTC)에 발표되었습니다.
북북서7kt북북서풍과 북동풍을 오가는
온도 16°C
습도 72%
기압 1012 hPa
시정 10km 이상
고도 2500ft 상공 구름 조금, 타워링 적운.
고도 3500ft 상공 구름 보통

METAR: LCLK 090900Z 34007KT 330V040 9999 FEW025TCU SCT035 16/11 Q1012 NOSIG

시각: 11:10 (09:10 UTC)

예보

예보는 3 시간 40분 전, 05:30시(UTC)에 발표되었습니다.
예보 대상 시간: 09일 06시부터 10일 06시까지 (UTC)
북북서7kt
시정 10km 이상
고도 2000ft 상공 구름 보통
확률 30% :
일시적
09일 06시부터 10일 06시까지 (UTC)
시정: 5000m
소나기
전환 중
09일 08시부터 09일 11시까지 (UTC)
북동11kt
확률 30% :
일시적
09일 10시부터 09일 19시까지 (UTC)
여러 방향의 바람 20kt, 순간 최대 풍속 30kt
시정: 3000m
고도 1000ft 상공 구름 보통
고도 2000ft 상공 구름 보통, 적란운.
뇌우, 비
전환 중
09일 16시부터 09일 19시까지 (UTC)
북북서7kt

TAF: LCLK 090530Z 0906/1006 34007KT 9999 SCT020 PROB30 TEMPO 0906/1006 5000 SHRA BECMG 0908/0911 04011KT PROB30 TEMPO 0910/0919 VRB20G30KT 3000 TSRA SCT010 SCT020CB BECMG 0916/0919 33007KT

4,000개 이상의 공항 관측 자료 및 예보 (METAR 및 TAF 보고).

지도상에서 검색 가능한 기상관측소가 노란 점과 빨간 점으로 표시되어 있습니다.

기상관측소 명을 보려면 표시 위로 마우스를 이동하세요.

날씨 관측과 예보를 보려면 클릭하세요.

지도 변경 : 확대하려면 엑스 표시가 있는 녹색 버튼, 축소하려면 빼기 표시가 있는 녹색 버튼, 다음 페이지의 지도를 보려면 녹색 화살표를 클릭하세요.


METAR-TAF: